Time;durP1;ratioP1;P1;durP2;ratioP2;P2;SDS_P1;SDS_P2;PMS_P1;PMS_P2;Temp;Humidity;BMP_temperature;BMP_pressure;BME280_temperature;BME280_humidity;BME280_pressure;Samples;Min_cycle;Max_cycle;Signal;HPM_P1;HPM_P2
2024/01/30 00:00:02;;;;;;;4.32;0.80;;;;;;;;;;5125520;27;20043;-76
2024/01/30 00:02:33;;;;;;;3.97;0.80;;;;;;;;;;5125418;27;20055;-75
2024/01/30 00:05:04;;;;;;;1.10;0.70;;;;;;;;;;5125822;27;20069;-75
2024/01/30 00:07:35;;;;;;;2.33;0.77;;;;;;;;;;5126549;27;20043;-76
2024/01/30 00:10:06;;;;;;;2.33;0.68;;;;;;;;;;5125892;27;20043;-76
2024/01/30 00:12:36;;;;;;;2.28;0.77;;;;;;;;;;5125783;27;20390;-75
2024/01/30 00:15:09;;;;;;;1.70;0.60;;;;;;;;;;5126025;27;20516;-75
2024/01/30 00:17:39;;;;;;;4.38;0.90;;;;;;;;;;5124979;27;20047;-77
2024/01/30 00:20:10;;;;;;;5.35;1.00;;;;;;;;;;5127513;27;20058;-73
2024/01/30 00:22:41;;;;;;;3.38;0.70;;;;;;;;;;5132383;27;20505;-76
2024/01/30 00:25:13;;;;;;;3.65;0.80;;;;;;;;;;5132680;27;20051;-76
2024/01/30 00:27:43;;;;;;;3.42;0.90;;;;;;;;;;5130166;27;20035;-75
2024/01/30 00:30:14;;;;;;;4.97;0.90;;;;;;;;;;5130524;27;20053;-75
2024/01/30 00:32:45;;;;;;;6.38;0.80;;;;;;;;;;5125794;27;20623;-74
2024/01/30 00:35:16;;;;;;;3.30;1.20;;;;;;;;;;5125907;27;20409;-74
2024/01/30 00:37:46;;;;;;;5.97;1.98;;;;;;;;;;5126089;27;20058;-75
2024/01/30 00:40:17;;;;;;;4.82;1.27;;;;;;;;;;5126862;27;20063;-76
2024/01/30 00:42:48;;;;;;;3.95;0.90;;;;;;;;;;5126343;27;20047;-76
2024/01/30 00:45:19;;;;;;;5.90;2.03;;;;;;;;;;5125420;27;20444;-75
2024/01/30 00:47:49;;;;;;;3.83;1.60;;;;;;;;;;5125829;27;20039;-76
2024/01/30 00:50:21;;;;;;;6.10;1.63;;;;;;;;;;5123894;27;20630;-78
2024/01/30 00:52:53;;;;;;;2.90;1.40;;;;;;;;;;5126036;27;20492;-75
2024/01/30 00:55:25;;;;;;;9.48;1.38;;;;;;;;;;5121490;27;20050;-75
2024/01/30 00:57:56;;;;;;;5.70;1.40;;;;;;;;;;5124399;27;20425;-76
2024/01/30 01:00:29;;;;;;;4.85;1.40;;;;;;;;;;5124996;27;20425;-76
2024/01/30 01:03:00;;;;;;;3.80;1.02;;;;;;;;;;5124436;27;20043;-76
2024/01/30 01:05:31;;;;;;;4.03;0.90;;;;;;;;;;5126185;27;20042;-75
2024/01/30 01:08:02;;;;;;;5.68;1.30;;;;;;;;;;5126792;27;20866;-76
2024/01/30 01:10:32;;;;;;;7.18;1.00;;;;;;;;;;5122542;27;20513;-74
2024/01/30 01:13:03;;;;;;;5.80;1.10;;;;;;;;;;5122296;27;20069;-75
2024/01/30 01:15:37;;;;;;;6.00;1.10;;;;;;;;;;5123654;27;20075;-76
2024/01/30 01:18:08;;;;;;;7.55;1.02;;;;;;;;;;5122530;27;20413;-76
2024/01/30 01:20:38;;;;;;;5.07;1.02;;;;;;;;;;5121916;27;21171;-76
2024/01/30 01:23:09;;;;;;;4.57;1.30;;;;;;;;;;5121685;27;20417;-76
2024/01/30 01:25:40;;;;;;;3.05;0.80;;;;;;;;;;5123849;27;20047;-77
2024/01/30 01:28:11;;;;;;;4.85;1.02;;;;;;;;;;5124642;27;20050;-77
2024/01/30 01:30:41;;;;;;;6.63;0.80;;;;;;;;;;5124068;27;20050;-75
2024/01/30 01:33:14;;;;;;;4.53;0.70;;;;;;;;;;5124725;27;20050;-75
2024/01/30 01:35:44;;;;;;;4.65;0.90;;;;;;;;;;5123894;27;20043;-77
2024/01/30 01:38:14;;;;;;;2.03;1.00;;;;;;;;;;5124314;27;20409;-75
2024/01/30 01:40:46;;;;;;;4.82;0.88;;;;;;;;;;5123976;27;20047;-78
2024/01/30 01:43:16;;;;;;;4.60;1.02;;;;;;;;;;5123932;27;20047;-76
2024/01/30 01:45:48;;;;;;;2.40;0.80;;;;;;;;;;5121960;27;20051;-77
2024/01/30 01:48:18;;;;;;;4.78;0.95;;;;;;;;;;5124193;27;20409;-75
2024/01/30 01:50:49;;;;;;;14.48;1.33;;;;;;;;;;5123326;27;20405;-76
2024/01/30 01:53:20;;;;;;;8.00;0.65;;;;;;;;;;5123685;27;20045;-75
2024/01/30 01:55:52;;;;;;;2.30;0.90;;;;;;;;;;5123111;27;20035;-74
2024/01/30 01:58:27;;;;;;;5.00;0.93;;;;;;;;;;5123725;27;20050;-77
2024/01/30 02:00:59;;;;;;;2.00;0.75;;;;;;;;;;5123627;27;20062;-77
2024/01/30 02:03:31;;;;;;;4.53;0.70;;;;;;;;;;5124027;27;20046;-77
2024/01/30 02:06:04;;;;;;;1.80;0.60;;;;;;;;;;5124158;27;20043;-76
2024/01/30 02:08:37;;;;;;;0.93;0.70;;;;;;;;;;5123133;27;20046;-74
2024/01/30 02:11:09;;;;;;;1.65;0.70;;;;;;;;;;5123026;27;20050;-76
2024/01/30 02:13:41;;;;;;;1.90;0.60;;;;;;;;;;5123284;27;20047;-77
2024/01/30 02:16:13;;;;;;;3.20;1.40;;;;;;;;;;5123253;27;20054;-76
2024/01/30 02:18:47;;;;;;;1.92;0.85;;;;;;;;;;5123282;27;20039;-77
2024/01/30 02:21:18;;;;;;;2.38;0.70;;;;;;;;;;5123306;27;20047;-74
2024/01/30 02:23:50;;;;;;;1.88;0.70;;;;;;;;;;5121924;27;20043;-74
2024/01/30 02:26:22;;;;;;;2.42;0.68;;;;;;;;;;5123161;27;20046;-76
2024/01/30 02:28:52;;;;;;;3.30;0.98;;;;;;;;;;5122739;27;20043;-75
2024/01/30 02:31:24;;;;;;;3.28;0.77;;;;;;;;;;5122845;27;20673;-74
2024/01/30 02:33:55;;;;;;;8.18;1.42;;;;;;;;;;5123442;27;20615;-74
2024/01/30 02:36:27;;;;;;;3.85;0.70;;;;;;;;;;5122630;27;20059;-74
2024/01/30 02:38:57;;;;;;;5.78;0.90;;;;;;;;;;5121630;28;20527;-76
2024/01/30 02:41:27;;;;;;;2.90;0.68;;;;;;;;;;5123289;28;20048;-75
2024/01/30 02:44:01;;;;;;;2.95;0.77;;;;;;;;;;5121720;28;20051;-77
2024/01/30 02:46:32;;;;;;;4.18;0.80;;;;;;;;;;5123007;27;20047;-73
2024/01/30 02:49:03;;;;;;;4.72;0.70;;;;;;;;;;5122641;28;20501;-74
2024/01/30 02:51:34;;;;;;;4.82;0.70;;;;;;;;;;5123028;27;20054;-76
2024/01/30 02:54:06;;;;;;;5.05;1.20;;;;;;;;;;5122416;27;20421;-75
2024/01/30 02:56:37;;;;;;;5.15;0.70;;;;;;;;;;5122823;28;20047;-75
2024/01/30 02:59:07;;;;;;;8.90;0.82;;;;;;;;;;5122591;28;20043;-77
2024/01/30 03:01:47;;;;;;;5.05;1.00;;;;;;;;;;5122767;28;20050;-75
2024/01/30 03:04:19;;;;;;;6.00;0.80;;;;;;;;;;5122709;28;20047;-76
2024/01/30 03:06:51;;;;;;;7.20;0.80;;;;;;;;;;5123129;27;20039;-73
2024/01/30 03:09:22;;;;;;;4.05;0.65;;;;;;;;;;5123299;28;20054;-77
2024/01/30 03:11:52;;;;;;;8.80;1.02;;;;;;;;;;5122874;28;20406;-75
2024/01/30 03:14:22;;;;;;;3.70;0.95;;;;;;;;;;5122862;28;20489;-75
2024/01/30 03:16:53;;;;;;;1.92;0.90;;;;;;;;;;5122702;28;20098;-77
2024/01/30 03:19:24;;;;;;;1.45;0.77;;;;;;;;;;5122742;27;20047;-76
2024/01/30 03:21:55;;;;;;;3.22;0.95;;;;;;;;;;5123082;28;20047;-77
2024/01/30 03:24:25;;;;;;;6.22;0.88;;;;;;;;;;5122274;27;20050;-77
2024/01/30 03:26:57;;;;;;;3.22;0.80;;;;;;;;;;5122748;28;20043;-77
2024/01/30 03:29:27;;;;;;;2.30;0.63;;;;;;;;;;5122326;28;20047;-77
2024/01/30 03:31:57;;;;;;;2.13;0.70;;;;;;;;;;5122081;27;20054;-77
2024/01/30 03:34:28;;;;;;;4.65;0.73;;;;;;;;;;5124519;27;20047;-76
2024/01/30 03:37:00;;;;;;;9.73;1.13;;;;;;;;;;5124409;27;20517;-77
2024/01/30 03:39:31;;;;;;;3.97;0.73;;;;;;;;;;5125889;27;20038;-75
2024/01/30 03:42:02;;;;;;;2.58;0.80;;;;;;;;;;5085625;28;20040;-76
2024/01/30 03:44:33;;;;;;;4.70;1.00;;;;;;;;;;5085501;28;20044;-77
2024/01/30 03:47:04;;;;;;;3.47;0.90;;;;;;;;;;5085053;28;20051;-74
2024/01/30 03:49:34;;;;;;;1.60;0.73;;;;;;;;;;5084484;28;20075;-76
2024/01/30 03:52:05;;;;;;;6.68;0.90;;;;;;;;;;5084704;28;20506;-74
2024/01/30 03:54:36;;;;;;;2.10;0.90;;;;;;;;;;5085249;28;20036;-74
2024/01/30 03:57:06;;;;;;;7.05;0.82;;;;;;;;;;5085376;28;20044;-75
2024/01/30 03:59:37;;;;;;;1.25;0.70;;;;;;;;;;5085845;28;20055;-77
2024/01/30 04:02:07;;;;;;;2.25;1.15;;;;;;;;;;5084481;28;20044;-75
2024/01/30 04:04:38;;;;;;;1.85;0.88;;;;;;;;;;5084489;28;20055;-74
2024/01/30 04:07:10;;;;;;;5.40;0.60;;;;;;;;;;5084976;28;20052;-74
2024/01/30 04:09:41;;;;;;;1.95;0.70;;;;;;;;;;5084851;28;20048;-78
2024/01/30 04:12:11;;;;;;;2.33;0.82;;;;;;;;;;5083394;28;20052;-76
2024/01/30 04:14:41;;;;;;;7.28;0.98;;;;;;;;;;5084999;28;20063;-77
2024/01/30 04:17:12;;;;;;;3.85;0.93;;;;;;;;;;5084332;28;20051;-76
2024/01/30 04:19:43;;;;;;;7.78;1.08;;;;;;;;;;5084237;28;20056;-75
2024/01/30 04:22:14;;;;;;;5.20;0.95;;;;;;;;;;5084198;28;20040;-77
2024/01/30 04:24:46;;;;;;;4.10;0.80;;;;;;;;;;5084389;28;20052;-76
2024/01/30 04:27:16;;;;;;;5.47;0.60;;;;;;;;;;5084633;28;20629;-77
2024/01/30 04:29:48;;;;;;;2.88;1.00;;;;;;;;;;5084530;28;20392;-75
2024/01/30 04:32:18;;;;;;;1.92;0.77;;;;;;;;;;5084576;28;20056;-76
2024/01/30 04:34:49;;;;;;;4.30;0.77;;;;;;;;;;5084420;28;20056;-75
2024/01/30 04:37:20;;;;;;;3.10;0.80;;;;;;;;;;5084108;28;20048;-74
2024/01/30 04:39:50;;;;;;;1.15;0.90;;;;;;;;;;5088636;27;20055;-77
2024/01/30 04:42:21;;;;;;;5.03;1.00;;;;;;;;;;5125102;27;20054;-75
2024/01/30 04:44:51;;;;;;;7.38;1.10;;;;;;;;;;5124696;27;20043;-76
2024/01/30 04:47:22;;;;;;;2.88;1.00;;;;;;;;;;5125137;27;20501;-77
2024/01/30 04:49:53;;;;;;;7.03;0.90;;;;;;;;;;5124958;27;20074;-77
2024/01/30 04:52:23;;;;;;;1.65;0.90;;;;;;;;;;5124586;27;20405;-75
2024/01/30 04:54:53;;;;;;;4.07;1.00;;;;;;;;;;5125151;27;20076;-74
2024/01/30 04:57:26;;;;;;;4.72;0.80;;;;;;;;;;5125366;27;20055;-77
2024/01/30 04:59:58;;;;;;;9.52;0.85;;;;;;;;;;5124578;27;20059;-75
2024/01/30 05:02:28;;;;;;;4.50;0.90;;;;;;;;;;5124506;27;20039;-74
2024/01/30 05:05:00;;;;;;;1.75;0.70;;;;;;;;;;5124661;27;20540;-76
2024/01/30 05:07:31;;;;;;;4.70;0.82;;;;;;;;;;5124704;27;20055;-74
2024/01/30 05:10:01;;;;;;;3.15;0.73;;;;;;;;;;5124212;27;20051;-77
2024/01/30 05:12:35;;;;;;;3.92;0.90;;;;;;;;;;5124179;27;20512;-77
2024/01/30 05:15:06;;;;;;;2.60;1.13;;;;;;;;;;5125019;27;20050;-77
2024/01/30 05:17:36;;;;;;;5.53;1.00;;;;;;;;;;5124539;27;20039;-76
2024/01/30 05:20:09;;;;;;;3.42;0.82;;;;;;;;;;5124205;27;20527;-73
2024/01/30 05:22:44;;;;;;;6.60;0.70;;;;;;;;;;5124426;27;20047;-75
2024/01/30 05:25:16;;;;;;;4.85;0.77;;;;;;;;;;5124129;27;20043;-75
2024/01/30 05:27:46;;;;;;;6.65;0.80;;;;;;;;;;5124563;27;20054;-75
2024/01/30 05:30:17;;;;;;;1.63;0.50;;;;;;;;;;5124170;27;20051;-75
2024/01/30 05:32:48;;;;;;;1.63;0.50;;;;;;;;;;5124046;27;20054;-73
2024/01/30 05:35:18;;;;;;;5.65;0.80;;;;;;;;;;5123841;27;20416;-75
2024/01/30 05:37:50;;;;;;;0.90;0.70;;;;;;;;;;5124171;27;20047;-74
2024/01/30 05:40:21;;;;;;;1.75;0.60;;;;;;;;;;5123657;27;20051;-75
2024/01/30 05:42:52;;;;;;;0.98;0.60;;;;;;;;;;5123740;27;20513;-76
2024/01/30 05:45:23;;;;;;;4.40;0.57;;;;;;;;;;5122978;27;20051;-75
2024/01/30 05:47:54;;;;;;;1.20;0.70;;;;;;;;;;5124391;27;20081;-76
2024/01/30 05:50:26;;;;;;;5.75;0.60;;;;;;;;;;5124005;27;20043;-76
2024/01/30 05:52:57;;;;;;;4.38;0.75;;;;;;;;;;5124080;27;20058;-75
2024/01/30 05:55:27;;;;;;;7.40;0.85;;;;;;;;;;5124359;27;20043;-77
2024/01/30 05:57:57;;;;;;;0.80;0.50;;;;;;;;;;5123440;27;20042;-74
2024/01/30 06:00:28;;;;;;;1.10;0.50;;;;;;;;;;5123549;27;20074;-75
2024/01/30 06:02:59;;;;;;;2.78;0.80;;;;;;;;;;5122904;27;20050;-75
2024/01/30 06:05:29;;;;;;;6.10;0.90;;;;;;;;;;5123483;27;20482;-74
2024/01/30 06:07:59;;;;;;;3.22;0.90;;;;;;;;;;5122996;27;20863;-76
2024/01/30 06:10:30;;;;;;;4.00;0.65;;;;;;;;;;5123601;27;20050;-74
2024/01/30 06:13:01;;;;;;;4.30;0.77;;;;;;;;;;5123312;27;20047;-75
2024/01/30 06:15:32;;;;;;;9.15;0.82;;;;;;;;;;5122833;27;20050;-75
2024/01/30 06:18:03;;;;;;;4.22;0.98;;;;;;;;;;5121069;27;20062;-75
2024/01/30 06:20:33;;;;;;;2.72;0.73;;;;;;;;;;5123442;27;20039;-76
2024/01/30 06:23:05;;;;;;;5.60;0.68;;;;;;;;;;5123090;27;20085;-74
2024/01/30 06:25:35;;;;;;;5.00;1.17;;;;;;;;;;5123152;27;20052;-74
2024/01/30 06:28:06;;;;;;;4.78;0.90;;;;;;;;;;5123104;27;20416;-76
2024/01/30 06:30:36;;;;;;;2.75;0.82;;;;;;;;;;5123143;27;20054;-75
2024/01/30 06:33:07;;;;;;;2.47;0.60;;;;;;;;;;5122634;27;20051;-76
2024/01/30 06:35:40;;;;;;;3.67;0.85;;;;;;;;;;5123300;27;20501;-73
2024/01/30 06:38:13;;;;;;;8.18;0.90;;;;;;;;;;5122841;27;20057;-76
2024/01/30 06:40:43;;;;;;;6.65;0.90;;;;;;;;;;5122635;28;20505;-73
2024/01/30 06:43:15;;;;;;;7.05;0.93;;;;;;;;;;5123299;28;20039;-74
2024/01/30 06:45:46;;;;;;;2.53;1.17;;;;;;;;;;5123286;27;20421;-75
2024/01/30 06:48:16;;;;;;;6.75;0.98;;;;;;;;;;5122660;28;20039;-75
2024/01/30 06:50:47;;;;;;;3.70;0.85;;;;;;;;;;5122582;27;20050;-75
2024/01/30 06:53:20;;;;;;;3.25;0.73;;;;;;;;;;5122980;28;20051;-74
2024/01/30 06:55:51;;;;;;;4.55;1.25;;;;;;;;;;5122743;28;20050;-74
2024/01/30 06:58:22;;;;;;;4.78;0.85;;;;;;;;;;5123079;27;20062;-75
2024/01/30 07:00:53;;;;;;;1.10;1.00;;;;;;;;;;5123246;28;20421;-76
2024/01/30 07:03:24;;;;;;;2.60;1.30;;;;;;;;;;5123034;27;20047;-74
2024/01/30 07:05:56;;;;;;;8.15;0.70;;;;;;;;;;5122637;28;20541;-75
2024/01/30 07:08:27;;;;;;;2.80;0.70;;;;;;;;;;5125410;27;20754;-75
2024/01/30 07:10:57;;;;;;;3.42;0.80;;;;;;;;;;5127218;27;20039;-74
2024/01/30 07:13:30;;;;;;;2.83;0.50;;;;;;;;;;5126524;27;20050;-73
2024/01/30 07:16:00;;;;;;;2.13;0.63;;;;;;;;;;5127389;27;20047;-76
2024/01/30 07:18:31;;;;;;;1.98;0.80;;;;;;;;;;5126380;27;20420;-75
2024/01/30 07:21:05;;;;;;;2.58;0.40;;;;;;;;;;5126820;27;20051;-76
2024/01/30 07:23:38;;;;;;;5.60;0.50;;;;;;;;;;5126693;27;20448;-76
2024/01/30 07:26:09;;;;;;;1.40;0.40;;;;;;;;;;5125923;27;20050;-76
2024/01/30 07:28:40;;;;;;;4.53;0.93;;;;;;;;;;5126799;27;20051;-74
2024/01/30 07:31:11;;;;;;;4.97;0.80;;;;;;;;;;5126152;27;20047;-74
2024/01/30 07:33:42;;;;;;;5.28;0.70;;;;;;;;;;5126449;27;20054;-75
2024/01/30 07:36:13;;;;;;;3.55;0.70;;;;;;;;;;5126147;27;20050;-75
2024/01/30 07:38:43;;;;;;;2.20;0.50;;;;;;;;;;5125831;27;20047;-75
2024/01/30 07:41:15;;;;;;;0.90;0.60;;;;;;;;;;5126316;27;20388;-73
2024/01/30 07:43:46;;;;;;;6.22;0.80;;;;;;;;;;5126799;27;20524;-77
2024/01/30 07:46:16;;;;;;;6.18;0.80;;;;;;;;;;5125313;27;20689;-76
2024/01/30 07:48:47;;;;;;;3.40;0.82;;;;;;;;;;5127192;27;20058;-74
2024/01/30 07:51:20;;;;;;;4.32;0.90;;;;;;;;;;5125975;27;20047;-75
2024/01/30 07:53:55;;;;;;;4.30;1.30;;;;;;;;;;5125637;27;20047;-74
2024/01/30 07:56:25;;;;;;;5.97;1.25;;;;;;;;;;5125668;27;21022;-75
2024/01/30 07:58:55;;;;;;;5.75;1.08;;;;;;;;;;5125530;27;20054;-75
2024/01/30 08:01:27;;;;;;;1.42;0.75;;;;;;;;;;5124160;27;20509;-75
2024/01/30 08:03:59;;;;;;;3.50;1.13;;;;;;;;;;5125606;27;20405;-75
2024/01/30 08:06:29;;;;;;;8.10;1.00;;;;;;;;;;5125786;27;20524;-75
2024/01/30 08:08:59;;;;;;;4.10;0.70;;;;;;;;;;5125169;27;20035;-75
2024/01/30 08:11:31;;;;;;;3.95;0.60;;;;;;;;;;5125660;27;20054;-76
2024/01/30 08:14:02;;;;;;;10.48;0.90;;;;;;;;;;5125095;27;20493;-76
2024/01/30 08:16:32;;;;;;;8.10;0.82;;;;;;;;;;5125601;27;20050;-74
2024/01/30 08:19:03;;;;;;;8.57;0.93;;;;;;;;;;5125596;27;20061;-75
2024/01/30 08:21:36;;;;;;;1.95;0.75;;;;;;;;;;5125926;27;20497;-75
2024/01/30 08:24:09;;;;;;;4.45;1.73;;;;;;;;;;5125607;27;20043;-75
2024/01/30 08:26:39;;;;;;;4.35;1.15;;;;;;;;;;5124106;27;20043;-76
2024/01/30 08:29:10;;;;;;;5.25;0.93;;;;;;;;;;5124265;27;20070;-77
2024/01/30 08:31:41;;;;;;;6.43;1.20;;;;;;;;;;5125150;27;20043;-77
2024/01/30 08:34:13;;;;;;;5.25;1.10;;;;;;;;;;5124925;27;20055;-74
2024/01/30 08:36:45;;;;;;;9.63;1.52;;;;;;;;;;5124739;27;20051;-75
2024/01/30 08:39:15;;;;;;;1.20;0.82;;;;;;;;;;5125309;27;20062;-75
2024/01/30 08:41:47;;;;;;;3.75;0.80;;;;;;;;;;5125132;27;20055;-75
2024/01/30 08:44:19;;;;;;;0.80;0.73;;;;;;;;;;5125078;27;20039;-75
2024/01/30 08:46:50;;;;;;;3.55;0.85;;;;;;;;;;5124925;27;20039;-74
2024/01/30 08:49:21;;;;;;;2.45;0.80;;;;;;;;;;5125234;27;20039;-74
2024/01/30 08:51:52;;;;;;;5.75;0.82;;;;;;;;;;5123512;27;20050;-76
2024/01/30 08:54:24;;;;;;;2.70;0.70;;;;;;;;;;5124637;27;20065;-77
2024/01/30 08:56:56;;;;;;;3.25;0.68;;;;;;;;;;5124874;27;20043;-76
2024/01/30 08:59:26;;;;;;;5.43;0.73;;;;;;;;;;5124451;27;20043;-75
2024/01/30 09:01:58;;;;;;;7.80;1.08;;;;;;;;;;5124591;27;20039;-78
2024/01/30 09:04:41;;;;;;;3.67;1.20;;;;;;;;;;5124685;27;20047;-75
2024/01/30 09:07:13;;;;;;;4.40;1.30;;;;;;;;;;5124611;27;20046;-76
2024/01/30 09:09:43;;;;;;;5.18;1.65;;;;;;;;;;5124642;27;20066;-76
2024/01/30 09:12:14;;;;;;;4.40;1.15;;;;;;;;;;5125132;27;20074;-76
2024/01/30 09:14:45;;;;;;;3.83;1.10;;;;;;;;;;5122590;27;20051;-76
2024/01/30 09:17:15;;;;;;;11.13;1.40;;;;;;;;;;5124745;27;20406;-75
2024/01/30 09:19:46;;;;;;;5.38;1.20;;;;;;;;;;5124187;27;20047;-75
2024/01/30 09:22:18;;;;;;;1.50;0.93;;;;;;;;;;5124063;27;20047;-77
2024/01/30 09:24:48;;;;;;;7.65;1.15;;;;;;;;;;5123852;27;20043;-75
2024/01/30 09:27:19;;;;;;;4.68;1.83;;;;;;;;;;5124493;27;20036;-75
2024/01/30 09:29:50;;;;;;;2.10;1.30;;;;;;;;;;5124426;27;20058;-76
2024/01/30 09:32:20;;;;;;;4.60;1.42;;;;;;;;;;5121373;27;21042;-76
2024/01/30 09:34:50;;;;;;;8.63;1.70;;;;;;;;;;5123980;27;20058;-75
2024/01/30 09:37:22;;;;;;;3.03;0.98;;;;;;;;;;5123703;27;20046;-76
2024/01/30 09:39:56;;;;;;;4.22;1.02;;;;;;;;;;5124219;27;20059;-75
2024/01/30 09:42:37;;;;;;;2.65;1.17;;;;;;;;;;5124424;27;20043;-75
2024/01/30 09:45:07;;;;;;;5.88;1.58;;;;;;;;;;5124319;27;20051;-76
2024/01/30 09:47:44;;;;;;;3.63;1.40;;;;;;;;;;5124282;27;20049;-74
2024/01/30 09:50:16;;;;;;;4.18;1.77;;;;;;;;;;5123395;27;20567;-74
2024/01/30 09:52:49;;;;;;;6.00;1.35;;;;;;;;;;5123918;27;20050;-80
2024/01/30 09:55:20;;;;;;;7.82;1.60;;;;;;;;;;5123373;27;20051;-75
2024/01/30 09:57:50;;;;;;;7.13;2.67;;;;;;;;;;5123540;27;21193;-75
2024/01/30 10:00:27;;;;;;;18.60;6.20;;;;;;;;;;5123263;27;20047;-76
2024/01/30 10:02:58;;;;;;;7.10;2.60;;;;;;;;;;5123577;27;20058;-76
2024/01/30 10:05:34;;;;;;;11.35;3.22;;;;;;;;;;5123063;27;20838;-78
2024/01/30 10:08:08;;;;;;;23.33;3.80;;;;;;;;;;5122436;27;20046;-76
2024/01/30 10:10:39;;;;;;;10.88;4.25;;;;;;;;;;5123129;27;20054;-76
2024/01/30 10:13:11;;;;;;;16.13;5.82;;;;;;;;;;5123774;27;20523;-76
2024/01/30 10:15:43;;;;;;;13.20;6.75;;;;;;;;;;5124068;27;20043;-75
2024/01/30 10:18:13;;;;;;;15.05;6.82;;;;;;;;;;5123739;27;20057;-75
2024/01/30 10:20:44;;;;;;;8.65;6.70;;;;;;;;;;5123554;27;20050;-75
2024/01/30 10:23:15;;;;;;;11.50;6.55;;;;;;;;;;5122018;27;20493;-75
2024/01/30 10:25:46;;;;;;;13.05;7.47;;;;;;;;;;5122978;27;20047;-75
2024/01/30 10:28:16;;;;;;;11.30;6.95;;;;;;;;;;5123527;27;20051;-74
2024/01/30 10:30:47;;;;;;;13.48;6.90;;;;;;;;;;5122439;27;20050;-74
2024/01/30 10:33:18;;;;;;;10.85;7.05;;;;;;;;;;5122838;27;20050;-75
2024/01/30 10:35:50;;;;;;;13.70;6.75;;;;;;;;;;5122982;27;20430;-80
2024/01/30 10:38:24;;;;;;;12.07;5.65;;;;;;;;;;5122467;27;20047;-76
2024/01/30 10:40:57;;;;;;;8.63;5.75;;;;;;;;;;5122840;28;20054;-76
2024/01/30 10:43:43;;;;;;;10.43;5.72;;;;;;;;;;5122562;27;20065;-76
2024/01/30 10:46:19;;;;;;;9.05;5.40;;;;;;;;;;5123097;27;20035;-76
2024/01/30 10:49:01;;;;;;;9.63;4.95;;;;;;;;;;5123436;28;20050;-76
2024/01/30 10:51:32;;;;;;;8.23;4.15;;;;;;;;;;5122936;28;20039;-76
2024/01/30 10:54:06;;;;;;;8.10;4.60;;;;;;;;;;5122884;28;20051;-74
2024/01/30 10:56:39;;;;;;;12.38;4.38;;;;;;;;;;5122299;27;20054;-77
2024/01/30 10:59:13;;;;;;;15.90;3.92;;;;;;;;;;5122455;28;20058;-75
2024/01/30 11:01:44;;;;;;;10.05;4.22;;;;;;;;;;5123261;27;20043;-78
2024/01/30 11:04:16;;;;;;;9.57;3.95;;;;;;;;;;5122560;27;20498;-76
2024/01/30 11:06:50;;;;;;;6.47;3.83;;;;;;;;;;5122202;27;20050;-79
2024/01/30 11:09:21;;;;;;;28.42;4.82;;;;;;;;;;5122716;27;20051;-76
2024/01/30 11:11:59;;;;;;;17.67;4.20;;;;;;;;;;5121324;28;20752;-78
2024/01/30 11:14:31;;;;;;;9.73;5.20;;;;;;;;;;5122743;28;20406;-77
2024/01/30 11:17:04;;;;;;;5.55;3.38;;;;;;;;;;5122465;27;20050;-78
2024/01/30 11:19:36;;;;;;;9.15;3.47;;;;;;;;;;5122597;27;20078;-75
2024/01/30 11:22:11;;;;;;;9.70;4.32;;;;;;;;;;5122458;27;20050;-75
2024/01/30 11:24:42;;;;;;;36.72;5.18;;;;;;;;;;5122056;28;20055;-79
2024/01/30 11:27:15;;;;;;;12.85;4.55;;;;;;;;;;5122788;27;20409;-79
2024/01/30 11:29:51;;;;;;;10.57;4.10;;;;;;;;;;5122085;28;20043;-74
2024/01/30 11:32:24;;;;;;;;;;;;;;;;;;5123299;27;20471;-88
2024/01/30 11:34:56;;;;;;;9.98;4.65;;;;;;;;;;5122611;28;19926;-75
2024/01/30 11:37:28;;;;;;;14.48;5.78;;;;;;;;;;5122058;28;20414;-77
2024/01/30 11:39:59;;;;;;;9.52;4.50;;;;;;;;;;5121950;27;20509;-76
2024/01/30 11:42:30;;;;;;;9.85;4.18;;;;;;;;;;5122735;28;20112;-77
2024/01/30 11:45:03;;;;;;;9.70;4.55;;;;;;;;;;5123095;27;20043;-75
2024/01/30 11:47:37;;;;;;;8.38;4.90;;;;;;;;;;5122440;27;20054;-75
2024/01/30 11:50:13;;;;;;;11.32;4.75;;;;;;;;;;5123790;28;20058;-77
2024/01/30 11:52:44;;;;;;;10.18;4.68;;;;;;;;;;5122162;28;20039;-76
2024/01/30 11:55:16;;;;;;;13.45;5.57;;;;;;;;;;5123977;27;20054;-76
2024/01/30 11:57:47;;;;;;;9.10;4.68;;;;;;;;;;5125777;27;20043;-77
2024/01/30 12:00:18;;;;;;;8.27;5.00;;;;;;;;;;5126488;27;20771;-75
2024/01/30 12:02:57;;;;;;;12.90;5.38;;;;;;;;;;5126474;27;20046;-75
2024/01/30 12:05:29;;;;;;;8.13;4.72;;;;;;;;;;5125935;27;20956;-76
2024/01/30 12:08:00;;;;;;;11.98;5.68;;;;;;;;;;5126311;27;20370;-75
2024/01/30 12:10:32;;;;;;;8.57;5.13;;;;;;;;;;5125693;27;20055;-73
2024/01/30 12:13:04;;;;;;;11.38;4.40;;;;;;;;;;5126292;27;20055;-75
2024/01/30 12:15:36;;;;;;;11.73;5.53;;;;;;;;;;5124821;27;20497;-78
2024/01/30 12:18:08;;;;;;;8.02;4.50;;;;;;;;;;5125438;27;20050;-76
2024/01/30 12:20:38;;;;;;;8.90;4.95;;;;;;;;;;5125787;27;20061;-76
2024/01/30 12:23:08;;;;;;;9.27;4.80;;;;;;;;;;5125231;27;20040;-85
2024/01/30 12:25:39;;;;;;;12.20;5.18;;;;;;;;;;5125498;27;20054;-75
2024/01/30 12:28:13;;;;;;;10.60;5.50;;;;;;;;;;5125358;27;20043;-74
2024/01/30 12:30:43;;;;;;;7.43;5.57;;;;;;;;;;5125797;27;20670;-75
2024/01/30 12:33:18;;;;;;;6.72;4.22;;;;;;;;;;5125691;27;20802;-76
2024/01/30 12:35:49;;;;;;;19.33;5.47;;;;;;;;;;5124746;27;20413;-75
2024/01/30 12:38:31;;;;;;;8.07;3.53;;;;;;;;;;5124873;27;20039;-75
2024/01/30 12:41:02;;;;;;;7.22;4.80;;;;;;;;;;5124782;27;20417;-77
2024/01/30 12:43:32;;;;;;;26.25;4.40;;;;;;;;;;5125555;27;20050;-74
2024/01/30 12:46:08;;;;;;;5.45;2.92;;;;;;;;;;5125384;27;20408;-75
2024/01/30 12:48:40;;;;;;;5.95;2.50;;;;;;;;;;5125527;27;20051;-75
2024/01/30 12:51:10;;;;;;;3.35;2.08;;;;;;;;;;5125386;27;20516;-76
2024/01/30 12:53:40;;;;;;;4.75;2.53;;;;;;;;;;5124355;27;20047;-76
2024/01/30 12:56:10;;;;;;;7.20;2.47;;;;;;;;;;5123505;27;20168;-78
2024/01/30 12:58:43;;;;;;;3.97;2.10;;;;;;;;;;5124548;27;20509;-77
2024/01/30 13:01:18;;;;;;;7.95;2.88;;;;;;;;;;5124600;27;20047;-78
2024/01/30 13:03:48;;;;;;;7.22;2.33;;;;;;;;;;5124498;27;20047;-75
2024/01/30 13:06:19;;;;;;;6.47;2.20;;;;;;;;;;5124584;27;20062;-75
2024/01/30 13:08:50;;;;;;;4.60;2.08;;;;;;;;;;5124249;27;20047;-75
2024/01/30 13:11:21;;;;;;;4.32;2.20;;;;;;;;;;5122757;27;20051;-76
2024/01/30 13:13:52;;;;;;;6.07;2.55;;;;;;;;;;5124298;27;20535;-75
2024/01/30 13:16:23;;;;;;;11.40;2.50;;;;;;;;;;5124583;27;20053;-76
2024/01/30 13:18:55;;;;;;;3.78;1.73;;;;;;;;;;5124395;27;20047;-75
2024/01/30 13:21:27;;;;;;;4.88;1.58;;;;;;;;;;5124554;27;20054;-75
2024/01/30 13:23:57;;;;;;;3.97;1.98;;;;;;;;;;5123231;27;20043;-81
2024/01/30 13:26:27;;;;;;;4.47;1.90;;;;;;;;;;5123855;27;20042;-76
2024/01/30 13:28:58;;;;;;;3.28;1.80;;;;;;;;;;5124047;27;20043;-77
2024/01/30 13:31:29;;;;;;;8.20;1.95;;;;;;;;;;5124074;27;20051;-76
2024/01/30 13:34:01;;;;;;;4.05;1.80;;;;;;;;;;5122461;27;20054;-75
2024/01/30 13:36:36;;;;;;;4.15;1.98;;;;;;;;;;5124541;27;20497;-77
2024/01/30 13:39:09;;;;;;;7.88;1.90;;;;;;;;;;5124750;27;20047;-76
2024/01/30 13:41:40;;;;;;;3.40;1.50;;;;;;;;;;5124386;27;20051;-75
2024/01/30 13:44:12;;;;;;;4.75;1.40;;;;;;;;;;5123898;27;20501;-82
2024/01/30 13:46:42;;;;;;;6.47;1.40;;;;;;;;;;5123525;27;20051;-76
2024/01/30 13:49:12;;;;;;;3.70;1.20;;;;;;;;;;5123696;27;20043;-76
2024/01/30 13:51:45;;;;;;;3.35;1.10;;;;;;;;;;5123330;27;20067;-78
2024/01/30 13:54:15;;;;;;;2.72;1.00;;;;;;;;;;5123848;27;20489;-80
2024/01/30 13:56:46;;;;;;;2.00;0.90;;;;;;;;;;5123340;27;20586;-76
2024/01/30 13:59:22;;;;;;;3.75;0.93;;;;;;;;;;5123189;27;20591;-76
2024/01/30 14:01:53;;;;;;;6.93;1.23;;;;;;;;;;5122860;27;20043;-75
2024/01/30 14:04:24;;;;;;;2.22;0.80;;;;;;;;;;5123338;27;20520;-76
2024/01/30 14:06:55;;;;;;;3.08;1.25;;;;;;;;;;5123707;27;20512;-76
2024/01/30 14:09:34;;;;;;;2.20;1.13;;;;;;;;;;5124146;27;20501;-76
2024/01/30 14:12:05;;;;;;;3.10;1.20;;;;;;;;;;5122706;27;20505;-76
2024/01/30 14:14:36;;;;;;;5.57;1.17;;;;;;;;;;5123160;27;20047;-75
2024/01/30 14:17:08;;;;;;;1.33;1.08;;;;;;;;;;5122985;27;20039;-73
2024/01/30 14:19:37;;;;;;;5.80;1.17;;;;;;;;;;5122777;27;20043;-76
2024/01/30 14:22:09;;;;;;;3.60;0.80;;;;;;;;;;5123069;27;20054;-78
2024/01/30 14:24:41;;;;;;;3.30;0.90;;;;;;;;;;5123164;27;20451;-77
2024/01/30 14:27:12;;;;;;;3.03;1.10;;;;;;;;;;5122566;27;20050;-76
2024/01/30 14:29:43;;;;;;;2.65;0.95;;;;;;;;;;5123585;27;20047;-74
2024/01/30 14:32:16;;;;;;;2.33;0.90;;;;;;;;;;5123131;27;20046;-75
2024/01/30 14:34:47;;;;;;;2.05;0.77;;;;;;;;;;5122453;27;20046;-76
2024/01/30 14:37:17;;;;;;;1.90;0.93;;;;;;;;;;5122289;27;20057;-76
2024/01/30 14:39:48;;;;;;;3.05;0.90;;;;;;;;;;5122754;27;20050;-76
2024/01/30 14:42:27;;;;;;;3.63;0.85;;;;;;;;;;5123195;28;20051;-85
2024/01/30 14:44:58;;;;;;;3.08;0.88;;;;;;;;;;5123990;28;20043;-76
2024/01/30 14:47:29;;;;;;;3.00;1.10;;;;;;;;;;5123028;27;20050;-75
2024/01/30 14:49:59;;;;;;;3.17;1.30;;;;;;;;;;5123379;28;20051;-75
2024/01/30 14:52:34;;;;;;;1.90;1.30;;;;;;;;;;5124507;27;20505;-75
2024/01/30 14:55:05;;;;;;;2.72;0.75;;;;;;;;;;5125225;27;20043;-77
2024/01/30 14:57:37;;;;;;;2.15;0.75;;;;;;;;;;5123087;28;20047;-76
2024/01/30 15:00:08;;;;;;;2.42;0.70;;;;;;;;;;5122456;28;20047;-77
2024/01/30 15:02:40;;;;;;;2.70;0.90;;;;;;;;;;5122540;28;20058;-76
2024/01/30 15:05:14;;;;;;;1.20;0.60;;;;;;;;;;5123200;27;20051;-80